Patuxent River Naval Air Station/Trapnell Field Aiport
KNHK : now visible

Airfield :











YOU CAN JOIN US ON...

 
LOGIN :

Register | Disclaimer

   EN    FR    IT 

 









Legend :    VFR   Marginal VFR   IFR   Intensive IFR   Very Intensive IFR
Visi :
Ceiling :
>= 8 km
>= 3000ft
5 to 8 km
1000 to 3000 ft
1500m to 5 km
500 to 1000 ft
800 to 1500m
200 to 500 ft
< 800m
< 200 ft
Symbols :   Thunderstorms  Fog  Heavy snow  Heavy precipitations  Wind > 20 kt






- Airport Elevation : 39 ft


KNHK - Patuxent River Naval Air Station/Trapnell Field Aiport

CURRENT METAR :
  • 250952Z COR 27003KT 10SM FEW250 14/14 A3029 RMK AO2 SLP258 T01440139

EXPIRED METARs :
  • 250852Z AUTO 23003KT 10SM CLR 14/13 A3029 RMK AO2 SLP255 T01440133 55000 $
  • 250752Z AUTO 00000KT 10SM CLR 14/14 A3027 RMK AO2 SLP248 T01440139 $

TAF TAF KNHK
Valid from the 25 at 07:00 until the 26 at 07:00 UTC


2507/2607 09008KT 9999 FEW050 FEW250 QNH3025INS
BECMG 2511/2513 VRB03KT 9999 FEW035 BKN050 QNH3022INS
BECMG 2516/2518 15010KT 9999 SCT012 BKN030 QNH3016INS
BECMG 2522/2600 18008KT 6000 BR BKN008 OVC015 QNH3010INS AUTOMATED SENSOR METWATCH 2507 TIL 2508 T16/2510Z T24/2523Z FN00237
KZDC FIR / North America



MET'MAP, your aeronautical weather chart ! - Copyright ORBIFLY December 2007 - Disclaimer

ORBIFLY MET'MAP TEAM :

Programming & Development : Alexandra Zaïnal
Concept & original design : Baudouin d'Aumeries
Assistance for programming : Marc-Olivier Méhu
Technical & hardware support : Manuel Goepfert

Contact : metmap@orbifly.com




SOURCES & CREDITS :

   NOAA       Earth
Advisory